createdAt,value
2024-05-09T00:00:57.996Z,24.43
2024-05-09T00:03:00.913Z,24.42
2024-05-09T00:05:03.234Z,24.42
2024-05-09T00:07:05.060Z,24.37
2024-05-09T00:09:06.779Z,24.41
2024-05-09T00:11:08.616Z,24.40
2024-05-09T00:13:11.323Z,24.41
2024-05-09T00:15:13.214Z,24.38
2024-05-09T00:17:15.036Z,24.37
2024-05-09T00:19:16.838Z,24.38
2024-05-09T00:21:18.567Z,24.38
2024-05-09T00:23:20.593Z,24.37
2024-05-09T00:25:22.448Z,24.37
2024-05-09T00:27:25.335Z,24.35
2024-05-09T00:29:27.231Z,24.35
2024-05-09T00:31:29.107Z,24.32
2024-05-09T00:33:31.282Z,24.31
2024-05-09T00:35:33.332Z,24.32
2024-05-09T00:37:35.298Z,24.32
2024-05-09T00:39:37.465Z,24.32
2024-05-09T00:41:39.392Z,24.33
2024-05-09T00:43:44.000Z,24.30
2024-05-09T00:45:46.167Z,24.31
2024-05-09T00:47:48.140Z,24.32
2024-05-09T00:49:50.215Z,24.26
2024-05-09T00:51:53.436Z,24.30
2024-05-09T00:53:55.384Z,24.29
2024-05-09T00:55:57.634Z,24.27
2024-05-09T00:57:59.350Z,24.27
2024-05-09T01:00:01.536Z,24.25
2024-05-09T01:02:03.550Z,24.25
2024-05-09T01:04:05.757Z,24.24
2024-05-09T01:06:07.509Z,24.24
2024-05-09T01:08:09.958Z,24.22
2024-05-09T01:10:21.163Z,24.23
2024-05-09T01:12:29.862Z,24.21
2024-05-09T01:14:31.713Z,24.23
2024-05-09T01:16:33.858Z,24.22
2024-05-09T01:18:35.873Z,24.23
2024-05-09T01:20:42.215Z,24.21
2024-05-09T01:22:47.283Z,24.20
2024-05-09T01:24:49.635Z,24.19
2024-05-09T01:26:51.524Z,24.18
2024-05-09T01:28:53.527Z,24.15
2024-05-09T01:30:55.360Z,24.16
2024-05-09T01:32:57.272Z,24.16
2024-05-09T01:34:59.204Z,24.16
2024-05-09T01:37:00.942Z,24.15
2024-05-09T01:39:03.018Z,24.15
2024-05-09T01:41:05.174Z,24.15
2024-05-09T01:43:08.681Z,24.15
2024-05-09T01:45:12.283Z,24.16
2024-05-09T01:47:17.461Z,24.15
2024-05-09T01:49:19.902Z,24.14
2024-05-09T01:51:21.747Z,24.13
2024-05-09T01:53:23.507Z,24.13
2024-05-09T01:55:25.854Z,24.12
2024-05-09T01:57:27.567Z,24.11
2024-05-09T01:59:29.327Z,24.10
2024-05-09T02:01:31.143Z,24.09
2024-05-09T02:03:53.166Z,24.07
2024-05-09T02:05:55.567Z,24.07
2024-05-09T02:07:57.730Z,24.07
2024-05-09T02:09:59.474Z,24.06
2024-05-09T02:12:01.476Z,24.08
2024-05-09T02:14:03.548Z,24.08
2024-05-09T02:16:11.316Z,24.07
2024-05-09T02:18:13.739Z,24.06
2024-05-09T02:20:22.630Z,24.06
2024-05-09T02:22:31.379Z,24.06
2024-05-09T02:24:33.119Z,24.05
2024-05-09T02:26:35.255Z,24.04
2024-05-09T02:28:37.077Z,24.03
2024-05-09T02:30:41.394Z,24.03
2024-05-09T02:32:44.164Z,24.01
2024-05-09T02:34:46.315Z,23.98
2024-05-09T02:36:48.076Z,24.02
2024-05-09T02:38:49.873Z,24.02
2024-05-09T02:40:51.661Z,24.02
2024-05-09T02:42:53.365Z,24.01
2024-05-09T02:44:55.331Z,24.02
2024-05-09T02:46:57.067Z,24.02
2024-05-09T02:48:58.816Z,24.01
2024-05-09T02:51:01.624Z,24.01
2024-05-09T02:53:03.575Z,23.99
2024-05-09T02:55:05.397Z,23.99
2024-05-09T02:57:07.271Z,23.99
2024-05-09T02:59:09.044Z,23.96
2024-05-09T03:01:10.910Z,23.98
2024-05-09T03:03:14.647Z,23.97
2024-05-09T03:05:17.645Z,23.97
2024-05-09T03:07:20.309Z,23.94
2024-05-09T03:09:23.883Z,23.98
2024-05-09T03:11:26.092Z,23.97
2024-05-09T03:13:28.043Z,23.97
2024-05-09T03:15:33.102Z,23.97
2024-05-09T03:17:39.846Z,23.96
2024-05-09T03:19:41.947Z,23.97
2024-05-09T03:21:43.689Z,23.96
2024-05-09T03:23:45.584Z,23.95
2024-05-09T03:25:47.559Z,23.95
2024-05-09T03:27:49.285Z,23.92
2024-05-09T03:29:51.512Z,23.90
2024-05-09T03:31:53.310Z,23.92
2024-05-09T03:33:55.253Z,23.92
2024-05-09T03:35:57.022Z,23.93
2024-05-09T03:37:58.756Z,23.93
2024-05-09T03:40:02.089Z,23.94
2024-05-09T03:42:04.847Z,23.94
2024-05-09T03:44:06.648Z,23.94
2024-05-09T03:46:08.407Z,23.94
2024-05-09T03:48:10.552Z,23.94
2024-05-09T03:50:21.863Z,23.93
2024-05-09T03:52:27.942Z,23.91
2024-05-09T03:54:29.623Z,23.90
2024-05-09T03:56:31.437Z,23.89
2024-05-09T03:58:34.010Z,23.88
2024-05-09T04:00:39.015Z,23.87
2024-05-09T04:02:43.371Z,23.89
2024-05-09T04:04:45.256Z,23.87
2024-05-09T04:06:47.038Z,23.87
2024-05-09T04:08:51.822Z,23.88
2024-05-09T04:10:53.646Z,23.87
2024-05-09T04:12:55.918Z,23.88
2024-05-09T04:14:58.695Z,23.87
2024-05-09T04:17:00.455Z,23.87
2024-05-09T04:19:02.504Z,23.87
2024-05-09T04:21:05.209Z,23.86
2024-05-09T04:23:08.941Z,23.86
2024-05-09T04:25:11.410Z,23.85
2024-05-09T04:27:13.398Z,23.83
2024-05-09T04:29:15.244Z,23.83
2024-05-09T04:31:17.142Z,23.78
2024-05-09T04:33:20.141Z,23.83
2024-05-09T04:35:22.505Z,23.83
2024-05-09T04:37:25.511Z,23.82
2024-05-09T04:39:27.547Z,23.83
2024-05-09T04:41:30.077Z,23.82
2024-05-09T04:43:33.260Z,23.83
2024-05-09T04:45:35.622Z,23.79
2024-05-09T04:47:37.838Z,23.79
2024-05-09T04:49:39.713Z,23.79
2024-05-09T04:51:41.583Z,23.79
2024-05-09T04:53:43.388Z,23.79
2024-05-09T04:55:45.678Z,23.77
2024-05-09T04:57:47.485Z,23.75
2024-05-09T04:59:49.252Z,23.74
2024-05-09T05:01:51.164Z,23.72
2024-05-09T05:03:53.381Z,23.72
2024-05-09T05:05:56.328Z,23.71
2024-05-09T05:07:58.235Z,23.71
2024-05-09T05:10:00.118Z,23.71
2024-05-09T05:12:02.946Z,23.72
2024-05-09T05:14:04.994Z,23.71
2024-05-09T05:16:06.895Z,23.69
2024-05-09T05:18:08.774Z,23.70
2024-05-09T05:20:15.072Z,23.70
2024-05-09T05:22:18.282Z,23.69
2024-05-09T05:24:20.194Z,23.69
2024-05-09T05:26:22.217Z,23.67
2024-05-09T05:28:24.149Z,23.66
2024-05-09T05:30:29.321Z,23.65
2024-05-09T05:32:36.309Z,23.63
2024-05-09T05:34:38.236Z,23.64
2024-05-09T05:36:39.910Z,23.65
2024-05-09T05:38:41.980Z,23.65
2024-05-09T05:40:43.924Z,23.65
2024-05-09T05:42:45.847Z,23.65
2024-05-09T05:44:47.642Z,23.65
2024-05-09T05:46:49.365Z,23.66
2024-05-09T05:48:54.403Z,23.66
2024-05-09T05:50:56.209Z,23.64
2024-05-09T05:52:58.144Z,23.64
2024-05-09T05:54:59.898Z,23.63
2024-05-09T05:57:01.684Z,23.62
2024-05-09T05:59:03.535Z,23.63
2024-05-09T06:01:05.330Z,23.63
2024-05-09T06:03:07.909Z,23.62
2024-05-09T06:05:10.058Z,23.61
2024-05-09T06:07:11.872Z,23.63
2024-05-09T06:09:13.930Z,23.60
2024-05-09T06:11:15.785Z,23.58
2024-05-09T06:13:17.565Z,23.64
2024-05-09T06:15:19.283Z,23.65
2024-05-09T06:17:21.472Z,23.65
2024-05-09T06:19:26.631Z,23.64
2024-05-09T06:21:28.397Z,23.63
2024-05-09T06:23:30.243Z,23.63
2024-05-09T06:25:32.162Z,23.61
2024-05-09T06:27:34.239Z,23.62
2024-05-09T06:29:38.461Z,23.60
2024-05-09T06:31:41.597Z,23.61
2024-05-09T06:33:43.529Z,23.62
2024-05-09T06:35:46.073Z,23.61
2024-05-09T06:37:47.887Z,23.62
2024-05-09T06:39:49.577Z,23.62
2024-05-09T06:41:51.589Z,23.61
2024-05-09T06:43:53.394Z,23.61
2024-05-09T06:45:55.327Z,23.60
2024-05-09T06:47:57.456Z,23.59
2024-05-09T06:49:59.374Z,23.59
2024-05-09T06:52:01.200Z,23.59
2024-05-09T06:54:03.081Z,23.57
2024-05-09T06:56:05.199Z,23.55
2024-05-09T06:58:08.463Z,23.55
2024-05-09T07:00:15.634Z,23.57
2024-05-09T07:02:21.080Z,23.54
2024-05-09T07:04:22.992Z,23.56
2024-05-09T07:06:25.150Z,23.56
2024-05-09T07:08:26.951Z,23.58
2024-05-09T07:10:34.780Z,23.55
2024-05-09T07:12:37.803Z,23.56
2024-05-09T07:14:39.758Z,23.56
2024-05-09T07:16:41.625Z,23.55
2024-05-09T07:18:43.728Z,23.56
2024-05-09T07:20:46.412Z,23.55
2024-05-09T07:22:48.454Z,23.53
2024-05-09T07:24:50.264Z,23.53
2024-05-09T07:26:52.232Z,23.53
2024-05-09T07:28:53.976Z,23.52
2024-05-09T07:30:55.761Z,23.51
2024-05-09T07:32:57.861Z,23.51
2024-05-09T07:34:59.785Z,23.52
2024-05-09T07:37:02.165Z,23.47
2024-05-09T07:39:05.626Z,23.54
2024-05-09T07:41:07.471Z,23.53
2024-05-09T07:43:11.633Z,23.53
2024-05-09T07:45:39.121Z,23.53
2024-05-09T07:49:12.048Z,23.52
2024-05-09T07:51:54.765Z,23.53
2024-05-09T07:54:34.352Z,23.50
2024-05-09T07:56:36.408Z,23.50
2024-05-09T07:58:38.713Z,23.49
2024-05-09T08:00:40.699Z,23.50
2024-05-09T08:02:42.640Z,23.47
2024-05-09T08:04:44.478Z,23.51
2024-05-09T08:06:46.326Z,23.52
2024-05-09T08:08:48.392Z,23.51
2024-05-09T08:10:52.777Z,23.49
2024-05-09T08:12:54.644Z,23.53
2024-05-09T08:14:56.523Z,23.52
2024-05-09T08:16:58.327Z,23.52
2024-05-09T08:19:00.391Z,23.51
2024-05-09T08:21:02.463Z,23.51
2024-05-09T08:23:06.488Z,23.50
2024-05-09T08:25:09.721Z,23.50
2024-05-09T08:27:12.623Z,23.50
2024-05-09T08:29:14.771Z,23.49
2024-05-09T08:31:16.629Z,23.49
2024-05-09T08:33:21.424Z,23.50
2024-05-09T08:35:25.889Z,23.50
2024-05-09T08:37:31.112Z,23.51
2024-05-09T08:39:36.835Z,23.52
2024-05-09T08:41:42.191Z,23.52
2024-05-09T08:43:44.447Z,23.52
2024-05-09T08:45:47.019Z,23.52
2024-05-09T08:47:50.880Z,23.52
2024-05-09T08:49:58.292Z,23.51
2024-05-09T08:52:00.224Z,23.51
2024-05-09T08:54:02.060Z,23.51
2024-05-09T08:56:05.431Z,23.48
2024-05-09T08:58:07.413Z,23.51
2024-05-09T09:00:14.829Z,23.52
2024-05-09T09:02:19.991Z,23.51
2024-05-09T09:04:22.852Z,23.52
2024-05-09T09:06:25.328Z,23.55
2024-05-09T09:08:27.931Z,23.52
2024-05-09T09:10:32.294Z,23.55
2024-05-09T09:12:35.680Z,23.55
2024-05-09T09:14:37.410Z,23.53
2024-05-09T09:16:39.186Z,23.53
2024-05-09T09:18:44.315Z,23.53
2024-05-09T09:20:46.293Z,23.53
2024-05-09T09:22:48.086Z,23.53
2024-05-09T09:24:49.914Z,23.52
2024-05-09T09:26:51.939Z,23.52
2024-05-09T09:28:53.789Z,23.53
2024-05-09T09:31:03.225Z,23.53
2024-05-09T09:33:06.551Z,23.52
2024-05-09T09:35:08.532Z,23.51
2024-05-09T09:37:11.229Z,23.53
2024-05-09T09:39:14.467Z,23.53
2024-05-09T09:41:19.854Z,23.53
2024-05-09T09:43:22.737Z,23.53
2024-05-09T09:45:25.089Z,23.54
2024-05-09T09:47:27.351Z,23.53
2024-05-09T09:49:32.855Z,23.53
2024-05-09T09:51:35.119Z,23.53
2024-05-09T09:53:38.268Z,23.52
2024-05-09T09:55:40.398Z,23.53
2024-05-09T09:57:43.962Z,23.53
2024-05-09T09:59:46.883Z,23.55
2024-05-09T10:01:48.825Z,23.55
2024-05-09T10:03:50.795Z,23.55
2024-05-09T10:05:53.376Z,23.59
2024-05-09T10:07:55.681Z,23.61
2024-05-09T10:09:57.956Z,23.67
2024-05-09T10:12:09.749Z,23.70
2024-05-09T10:14:11.783Z,23.74
2024-05-09T10:16:20.445Z,23.78
2024-05-09T10:18:28.320Z,23.80
2024-05-09T10:20:44.772Z,23.83
2024-05-09T10:22:50.555Z,23.84
2024-05-09T10:24:54.058Z,23.86
2024-05-09T10:26:56.003Z,23.83
2024-05-09T10:28:58.746Z,23.86
2024-05-09T10:31:14.854Z,23.89
2024-05-09T10:33:19.823Z,23.92
2024-05-09T10:35:22.814Z,23.92
2024-05-09T10:37:26.662Z,23.94
2024-05-09T10:39:34.994Z,23.96
2024-05-09T10:41:38.245Z,23.96
2024-05-09T10:43:41.036Z,23.94
2024-05-09T10:45:42.756Z,23.93
2024-05-09T10:47:44.848Z,23.93
2024-05-09T10:49:47.204Z,23.93
2024-05-09T10:51:49.477Z,23.97
2024-05-09T10:53:52.701Z,23.95
2024-05-09T10:55:57.999Z,23.96
2024-05-09T10:57:59.838Z,23.97
2024-05-09T11:00:01.524Z,23.98
2024-05-09T11:02:04.753Z,24.02
2024-05-09T11:04:08.345Z,24.03
2024-05-09T11:06:11.593Z,24.05
2024-05-09T11:08:13.587Z,24.10
2024-05-09T11:10:21.001Z,24.13
2024-05-09T11:12:29.404Z,24.16
2024-05-09T11:14:31.401Z,24.21
2024-05-09T11:16:33.232Z,24.26
2024-05-09T11:18:38.111Z,24.29
2024-05-09T11:20:41.247Z,24.29
2024-05-09T11:22:43.128Z,24.32
2024-05-09T11:24:44.835Z,24.32
2024-05-09T11:26:46.780Z,24.34
2024-05-09T11:28:50.960Z,24.35
2024-05-09T11:30:52.819Z,24.38
2024-05-09T11:32:54.740Z,24.40
2024-05-09T11:34:56.470Z,24.42
2024-05-09T11:36:58.247Z,24.44
2024-05-09T11:39:00.746Z,24.50
2024-05-09T11:41:03.260Z,24.54
2024-05-09T11:43:08.130Z,24.57
2024-05-09T11:45:09.880Z,24.57
2024-05-09T11:47:11.672Z,24.58
2024-05-09T11:49:13.661Z,24.59
2024-05-09T11:51:15.444Z,24.56
2024-05-09T11:53:17.200Z,24.59
2024-05-09T11:55:19.116Z,24.59
2024-05-09T11:57:21.207Z,24.59
2024-05-09T11:59:22.942Z,24.61
2024-05-09T12:01:27.686Z,24.64
2024-05-09T12:03:29.876Z,24.66
2024-05-09T12:05:32.289Z,24.68
2024-05-09T12:07:34.507Z,24.71
2024-05-09T12:09:36.410Z,24.72
2024-05-09T12:11:38.305Z,24.73
2024-05-09T12:13:40.222Z,24.73
2024-05-09T12:15:42.569Z,24.75
2024-05-09T12:17:49.585Z,24.76
2024-05-09T12:19:52.878Z,24.76
2024-05-09T12:21:54.743Z,24.77
2024-05-09T12:23:56.684Z,24.78
2024-05-09T12:25:58.414Z,24.77
2024-05-09T12:28:00.689Z,24.75
2024-05-09T12:30:03.431Z,24.80
2024-05-09T12:32:06.485Z,24.81
2024-05-09T12:34:08.396Z,24.82
2024-05-09T12:36:10.517Z,24.83
2024-05-09T12:38:12.210Z,24.86
2024-05-09T12:40:22.817Z,24.87
2024-05-09T12:42:33.757Z,24.88
2024-05-09T12:44:36.152Z,24.90
2024-05-09T12:46:38.090Z,24.89
2024-05-09T12:48:40.116Z,24.90
2024-05-09T12:50:42.272Z,24.92
2024-05-09T12:52:44.153Z,24.92
2024-05-09T12:54:45.915Z,24.95
2024-05-09T12:56:47.717Z,24.95
2024-05-09T12:58:49.629Z,24.94
2024-05-09T13:00:52.200Z,24.98
2024-05-09T13:02:54.447Z,24.97
2024-05-09T13:04:57.036Z,24.97
2024-05-09T13:06:58.920Z,24.97
2024-05-09T13:09:00.743Z,24.98
2024-05-09T13:11:02.505Z,25.01
2024-05-09T13:13:04.813Z,25.02
2024-05-09T13:15:06.816Z,25.04
2024-05-09T13:17:08.727Z,25.03
2024-05-09T13:19:10.522Z,25.04
2024-05-09T13:21:12.294Z,25.06
2024-05-09T13:23:14.194Z,25.07
2024-05-09T13:25:16.017Z,25.08
2024-05-09T13:27:17.887Z,25.09
2024-05-09T13:29:19.641Z,25.11
2024-05-09T13:31:21.372Z,25.10
2024-05-09T13:33:23.429Z,25.09
2024-05-09T13:35:25.200Z,25.10
2024-05-09T13:37:27.038Z,25.11
2024-05-09T13:39:28.774Z,25.11
2024-05-09T13:41:30.567Z,25.11
2024-05-09T13:43:32.635Z,25.13
2024-05-09T13:45:35.297Z,25.10
2024-05-09T13:47:37.334Z,25.11
2024-05-09T13:49:39.154Z,25.12
2024-05-09T13:51:40.904Z,25.11
2024-05-09T13:53:43.133Z,25.13
2024-05-09T13:55:44.902Z,25.12
2024-05-09T13:57:46.667Z,25.13
2024-05-09T13:59:48.460Z,25.12
2024-05-09T14:01:50.306Z,25.11
2024-05-09T14:03:52.894Z,25.10
2024-05-09T14:05:55.049Z,25.10
2024-05-09T14:07:57.394Z,25.10
2024-05-09T14:09:59.182Z,25.10
2024-05-09T14:12:00.925Z,25.08
2024-05-09T14:14:03.051Z,25.09
2024-05-09T14:16:05.652Z,25.07
2024-05-09T14:18:11.257Z,25.08
2024-05-09T14:20:23.267Z,25.08
2024-05-09T14:22:31.758Z,25.08
2024-05-09T14:24:33.603Z,25.06
2024-05-09T14:26:35.374Z,25.08
2024-05-09T14:28:37.057Z,25.07
2024-05-09T14:30:39.497Z,25.07
2024-05-09T14:32:41.681Z,25.07
2024-05-09T14:34:43.642Z,25.04
2024-05-09T14:36:45.595Z,25.07
2024-05-09T14:38:47.340Z,25.11
2024-05-09T14:40:50.528Z,25.09
2024-05-09T14:42:52.573Z,25.10
2024-05-09T14:44:54.423Z,25.09
2024-05-09T14:46:56.213Z,25.10
2024-05-09T14:49:00.027Z,25.09
2024-05-09T14:51:01.820Z,25.08
2024-05-09T14:53:03.709Z,25.08
2024-05-09T14:55:06.248Z,25.06
2024-05-09T14:57:08.792Z,25.08
2024-05-09T14:59:10.709Z,25.05
2024-05-09T15:01:12.464Z,25.06
2024-05-09T15:03:14.569Z,25.06
2024-05-09T15:05:16.367Z,25.05
2024-05-09T15:07:18.223Z,25.05
2024-05-09T15:09:20.086Z,25.03
2024-05-09T15:11:22.206Z,25.02
2024-05-09T15:13:25.752Z,25.02
2024-05-09T15:15:27.672Z,25.01
2024-05-09T15:17:30.753Z,25.00
2024-05-09T15:19:32.923Z,24.98
2024-05-09T15:21:34.891Z,24.98
2024-05-09T15:23:36.672Z,24.97
2024-05-09T15:25:38.640Z,24.97
2024-05-09T15:27:40.406Z,24.95
2024-05-09T15:29:42.144Z,24.95
2024-05-09T15:31:44.499Z,24.94
2024-05-09T15:33:46.435Z,24.93
2024-05-09T15:35:48.541Z,24.91
2024-05-09T15:37:50.488Z,24.89
2024-05-09T15:39:52.304Z,24.90
2024-05-09T15:41:55.861Z,24.89
2024-05-09T15:43:57.580Z,24.88
2024-05-09T15:45:59.372Z,24.86
2024-05-09T15:48:02.042Z,24.87
2024-05-09T15:50:06.279Z,24.86
2024-05-09T15:52:09.865Z,24.87
2024-05-09T15:54:11.763Z,24.86
2024-05-09T15:56:13.528Z,24.85
2024-05-09T15:58:15.881Z,24.84
2024-05-09T16:00:25.092Z,24.83
2024-05-09T16:02:35.640Z,24.82
2024-05-09T16:04:37.867Z,24.83
2024-05-09T16:06:39.820Z,24.82
2024-05-09T16:08:44.529Z,24.82
2024-05-09T16:10:47.278Z,24.81
2024-05-09T16:12:49.459Z,24.81
2024-05-09T16:14:52.293Z,24.78
2024-05-09T16:16:54.151Z,24.75
2024-05-09T16:18:56.069Z,24.77
2024-05-09T16:20:59.598Z,24.78
2024-05-09T16:23:01.301Z,24.78
2024-05-09T16:25:03.145Z,24.78
2024-05-09T16:27:05.040Z,24.79
2024-05-09T16:29:06.972Z,24.78
2024-05-09T16:31:08.727Z,24.78
2024-05-09T16:33:11.825Z,24.77
2024-05-09T16:35:13.781Z,24.77
2024-05-09T16:37:15.729Z,24.76
2024-05-09T16:39:18.048Z,24.74
2024-05-09T16:41:19.821Z,24.69
2024-05-09T16:43:21.674Z,24.73
2024-05-09T16:45:23.418Z,24.73
2024-05-09T16:47:25.489Z,24.71
2024-05-09T16:49:27.573Z,24.74
2024-05-09T16:51:29.438Z,24.72
2024-05-09T16:53:31.156Z,24.73
2024-05-09T16:55:33.107Z,24.73
2024-05-09T16:57:35.038Z,24.73
2024-05-09T16:59:36.808Z,24.73
2024-05-09T17:01:38.607Z,24.73
2024-05-09T17:03:40.495Z,24.73
2024-05-09T17:05:42.942Z,24.72
2024-05-09T17:07:47.810Z,24.70
2024-05-09T17:09:49.653Z,24.72
2024-05-09T17:11:51.418Z,24.73
2024-05-09T17:13:53.187Z,24.72
2024-05-09T17:15:55.059Z,24.72
2024-05-09T17:17:57.199Z,24.68
2024-05-09T17:19:58.948Z,24.69
2024-05-09T17:22:01.025Z,24.64
2024-05-09T17:24:02.728Z,24.70
2024-05-09T17:26:04.557Z,24.69
2024-05-09T17:28:10.569Z,24.70
2024-05-09T17:30:17.828Z,24.69
2024-05-09T17:32:25.904Z,24.69
2024-05-09T17:34:27.817Z,24.67
2024-05-09T17:36:29.599Z,24.67
2024-05-09T17:38:34.624Z,24.67
2024-05-09T17:40:38.217Z,24.66
2024-05-09T17:42:41.021Z,24.65
2024-05-09T17:44:42.879Z,24.63
2024-05-09T17:46:44.791Z,24.65
2024-05-09T17:48:46.896Z,24.63
2024-05-09T17:50:48.698Z,24.65
2024-05-09T17:52:52.877Z,24.64
2024-05-09T17:54:54.622Z,24.64
2024-05-09T17:56:56.470Z,24.65
2024-05-09T17:58:58.487Z,24.63
2024-05-09T18:01:00.658Z,24.63
2024-05-09T18:03:02.546Z,24.63
2024-05-09T18:05:05.299Z,24.63
2024-05-09T18:07:07.652Z,24.64
2024-05-09T18:09:09.546Z,24.63
2024-05-09T18:11:11.525Z,24.63
2024-05-09T18:13:13.799Z,24.63
2024-05-09T18:15:15.624Z,24.64
2024-05-09T18:17:19.662Z,24.64
2024-05-09T18:19:22.101Z,24.65
2024-05-09T18:21:24.082Z,24.65
2024-05-09T18:23:25.863Z,24.65
2024-05-09T18:25:27.608Z,24.64
2024-05-09T18:27:29.587Z,24.67
2024-05-09T18:29:31.431Z,24.66
2024-05-09T18:31:33.473Z,24.67
2024-05-09T18:33:35.542Z,24.68
2024-05-09T18:35:37.401Z,24.67
2024-05-09T18:37:40.203Z,24.67
2024-05-09T18:39:42.335Z,24.67
2024-05-09T18:41:44.179Z,24.67
2024-05-09T18:43:50.183Z,24.67
2024-05-09T18:45:52.667Z,24.66
2024-05-09T18:47:55.336Z,24.66
2024-05-09T18:49:57.242Z,24.66
2024-05-09T18:51:59.019Z,24.66
2024-05-09T18:54:01.053Z,24.64
2024-05-09T18:56:02.947Z,24.65
2024-05-09T18:58:05.188Z,24.65
2024-05-09T19:00:12.808Z,24.65
2024-05-09T19:02:18.044Z,24.67
2024-05-09T19:04:19.978Z,24.67
2024-05-09T19:06:24.557Z,24.66
2024-05-09T19:08:27.104Z,24.64
2024-05-09T19:10:34.020Z,24.66
2024-05-09T19:12:37.149Z,24.66
2024-05-09T19:14:38.990Z,24.67
2024-05-09T19:16:41.966Z,24.62
2024-05-09T19:18:43.856Z,24.65
2024-05-09T19:20:45.796Z,24.64
2024-05-09T19:22:47.741Z,24.64
2024-05-09T19:24:49.625Z,24.63
2024-05-09T19:26:51.478Z,24.64
2024-05-09T19:28:53.280Z,24.65
2024-05-09T19:30:55.267Z,24.64
2024-05-09T19:32:57.197Z,24.64
2024-05-09T19:34:59.951Z,24.65
2024-05-09T19:37:02.419Z,24.65
2024-05-09T19:39:04.127Z,24.65
2024-05-09T19:41:05.900Z,24.65
2024-05-09T19:43:08.005Z,24.64
2024-05-09T19:45:09.884Z,24.65
2024-05-09T19:47:12.013Z,24.65
2024-05-09T19:49:13.907Z,24.65
2024-05-09T19:51:15.732Z,24.65
2024-05-09T19:53:17.514Z,24.64
2024-05-09T19:55:19.531Z,24.66
2024-05-09T19:57:21.448Z,24.64
2024-05-09T19:59:23.168Z,24.66
2024-05-09T20:01:25.073Z,24.65
2024-05-09T20:03:26.941Z,24.67
2024-05-09T20:05:30.656Z,24.67
2024-05-09T20:07:35.818Z,24.67
2024-05-09T20:09:38.098Z,24.68
2024-05-09T20:11:39.989Z,24.69
2024-05-09T20:13:41.809Z,24.66
2024-05-09T20:15:43.748Z,24.70
2024-05-09T20:17:45.757Z,24.68
2024-05-09T20:19:47.702Z,24.68
2024-05-09T20:21:49.588Z,24.68
2024-05-09T20:23:51.356Z,24.70
2024-05-09T20:25:53.074Z,24.69
2024-05-09T20:27:54.811Z,24.68
2024-05-09T20:29:56.560Z,24.68
2024-05-09T20:31:58.305Z,24.68
2024-05-09T20:34:00.101Z,24.68
2024-05-09T20:36:02.545Z,24.70
2024-05-09T20:38:04.975Z,24.71
2024-05-09T20:40:12.054Z,24.70
2024-05-09T20:42:17.620Z,24.71
2024-05-09T20:44:19.432Z,24.68
2024-05-09T20:46:21.331Z,24.68
2024-05-09T20:48:24.702Z,24.71
2024-05-09T20:50:35.991Z,24.70
2024-05-09T20:52:41.688Z,24.70
2024-05-09T20:54:43.662Z,24.68
2024-05-09T20:56:45.383Z,24.70
2024-05-09T20:58:47.079Z,24.70
2024-05-09T21:00:48.934Z,24.71
2024-05-09T21:02:50.794Z,24.71
2024-05-09T21:04:52.692Z,24.71
2024-05-09T21:06:54.599Z,24.72
2024-05-09T21:08:58.379Z,24.73
2024-05-09T21:11:00.263Z,24.73
2024-05-09T21:13:03.326Z,24.73
2024-05-09T21:15:06.217Z,24.74
2024-05-09T21:17:08.353Z,24.72
2024-05-09T21:19:10.245Z,24.73
2024-05-09T21:21:12.170Z,24.74
2024-05-09T21:23:13.887Z,24.69
2024-05-09T21:25:15.899Z,24.71
2024-05-09T21:27:18.458Z,24.73
2024-05-09T21:29:20.239Z,24.73
2024-05-09T21:31:22.038Z,24.74
2024-05-09T21:33:23.928Z,24.73
2024-05-09T21:35:25.924Z,24.74
2024-05-09T21:37:27.645Z,24.74
2024-05-09T21:39:30.159Z,24.74
2024-05-09T21:41:31.854Z,24.75
2024-05-09T21:43:34.248Z,24.75
2024-05-09T21:45:36.947Z,24.75
2024-05-09T21:47:39.038Z,24.75
2024-05-09T21:49:41.247Z,24.74
2024-05-09T21:51:43.098Z,24.75
2024-05-09T21:53:44.847Z,24.74
2024-05-09T21:55:46.744Z,24.74
2024-05-09T21:57:48.577Z,24.72
2024-05-09T21:59:50.346Z,24.73
2024-05-09T22:01:52.332Z,24.72
2024-05-09T22:03:54.303Z,24.71
2024-05-09T22:05:56.047Z,24.71
2024-05-09T22:07:57.778Z,24.73
2024-05-09T22:09:59.584Z,24.74
2024-05-09T22:12:01.491Z,24.73
2024-05-09T22:14:03.525Z,24.74
2024-05-09T22:16:05.830Z,24.74
2024-05-09T22:18:08.839Z,24.74
2024-05-09T22:20:18.277Z,24.75
2024-05-09T22:22:24.099Z,24.75
2024-05-09T22:24:25.973Z,24.74
2024-05-09T22:26:27.810Z,24.73
2024-05-09T22:28:29.562Z,24.74
2024-05-09T22:30:36.185Z,24.72
2024-05-09T22:32:41.361Z,24.71
2024-05-09T22:34:43.127Z,24.71
2024-05-09T22:36:45.213Z,24.72
2024-05-09T22:38:46.964Z,24.71
2024-05-09T22:40:49.999Z,24.71
2024-05-09T22:42:52.239Z,24.73
2024-05-09T22:44:54.043Z,24.73
2024-05-09T22:46:56.014Z,24.73
2024-05-09T22:48:57.840Z,24.74
2024-05-09T22:50:59.700Z,24.72
2024-05-09T22:53:01.489Z,24.72
2024-05-09T22:55:04.724Z,24.73
2024-05-09T22:57:06.467Z,24.72
2024-05-09T22:59:08.350Z,24.71
2024-05-09T23:01:15.129Z,24.71
2024-05-09T23:03:18.561Z,24.70
2024-05-09T23:05:20.538Z,24.72
2024-05-09T23:07:22.496Z,24.72
2024-05-09T23:09:24.544Z,24.73
2024-05-09T23:11:26.323Z,24.74
2024-05-09T23:13:28.116Z,24.73
2024-05-09T23:15:29.944Z,24.74
2024-05-09T23:17:31.792Z,24.75
2024-05-09T23:19:34.701Z,24.74
2024-05-09T23:21:42.898Z,24.74
2024-05-09T23:23:44.661Z,24.74
2024-05-09T23:25:46.379Z,24.74
2024-05-09T23:27:48.164Z,24.72
2024-05-09T23:29:50.009Z,24.74
2024-05-09T23:31:51.703Z,24.74
2024-05-09T23:33:54.872Z,24.74
2024-05-09T23:35:56.919Z,24.73
2024-05-09T23:37:58.655Z,24.74
2024-05-09T23:40:00.466Z,24.74
2024-05-09T23:42:03.720Z,24.74
2024-05-09T23:44:05.458Z,24.75
2024-05-09T23:46:07.355Z,24.76
2024-05-09T23:48:09.595Z,24.76
2024-05-09T23:50:16.927Z,24.76
2024-05-09T23:52:25.565Z,24.76
2024-05-09T23:54:27.298Z,24.76
2024-05-09T23:56:29.032Z,24.75
2024-05-09T23:58:33.416Z,24.75
